sensor_id;sensor_type;location;lat;lon;timestamp;P1;durP1;ratioP1;P2;durP2;ratioP2
24685;SDS011;12804;51.176;4.452;2022-07-10T00:00:04;3.90;;;1.17;;
24685;SDS011;12804;51.176;4.452;2022-07-10T00:02:42;3.53;;;0.95;;
24685;SDS011;12804;51.176;4.452;2022-07-10T00:05:09;4.38;;;1.15;;
24685;SDS011;12804;51.176;4.452;2022-07-10T00:07:36;2.85;;;1.13;;
24685;SDS011;12804;51.176;4.452;2022-07-10T00:10:02;4.53;;;1.50;;
24685;SDS011;12804;51.176;4.452;2022-07-10T00:12:28;6.40;;;1.10;;
24685;SDS011;12804;51.176;4.452;2022-07-10T00:14:54;3.22;;;1.10;;
24685;SDS011;12804;51.176;4.452;2022-07-10T00:17:20;4.93;;;1.02;;
24685;SDS011;12804;51.176;4.452;2022-07-10T00:19:46;4.72;;;1.20;;
24685;SDS011;12804;51.176;4.452;2022-07-10T00:22:12;4.95;;;1.10;;
24685;SDS011;12804;51.176;4.452;2022-07-10T00:24:38;4.55;;;1.15;;
24685;SDS011;12804;51.176;4.452;2022-07-10T00:27:04;5.20;;;1.27;;
24685;SDS011;12804;51.176;4.452;2022-07-10T00:29:30;4.95;;;1.08;;
24685;SDS011;12804;51.176;4.452;2022-07-10T00:31:55;2.20;;;1.00;;
24685;SDS011;12804;51.176;4.452;2022-07-10T00:34:21;3.38;;;0.98;;
24685;SDS011;12804;51.176;4.452;2022-07-10T00:36:47;6.00;;;1.10;;
24685;SDS011;12804;51.176;4.452;2022-07-10T00:39:13;5.65;;;1.00;;
24685;SDS011;12804;51.176;4.452;2022-07-10T00:41:38;6.70;;;1.30;;
24685;SDS011;12804;51.176;4.452;2022-07-10T00:44:04;6.15;;;1.52;;
24685;SDS011;12804;51.176;4.452;2022-07-10T00:46:30;1.92;;;0.80;;
24685;SDS011;12804;51.176;4.452;2022-07-10T00:48:56;4.68;;;1.00;;
24685;SDS011;12804;51.176;4.452;2022-07-10T00:51:27;2.70;;;1.10;;
24685;SDS011;12804;51.176;4.452;2022-07-10T00:53:54;3.95;;;1.02;;
24685;SDS011;12804;51.176;4.452;2022-07-10T00:56:25;3.42;;;1.05;;
24685;SDS011;12804;51.176;4.452;2022-07-10T00:58:53;2.13;;;1.00;;
24685;SDS011;12804;51.176;4.452;2022-07-10T01:01:19;2.08;;;0.80;;
24685;SDS011;12804;51.176;4.452;2022-07-10T01:03:47;3.40;;;0.90;;
24685;SDS011;12804;51.176;4.452;2022-07-10T01:06:14;4.32;;;1.10;;
24685;SDS011;12804;51.176;4.452;2022-07-10T01:08:41;3.13;;;0.90;;
24685;SDS011;12804;51.176;4.452;2022-07-10T01:11:11;4.05;;;1.25;;
24685;SDS011;12804;51.176;4.452;2022-07-10T01:13:38;4.38;;;1.10;;
24685;SDS011;12804;51.176;4.452;2022-07-10T01:16:04;4.95;;;1.30;;
24685;SDS011;12804;51.176;4.452;2022-07-10T01:18:30;4.68;;;1.23;;
24685;SDS011;12804;51.176;4.452;2022-07-10T01:20:56;3.13;;;1.20;;
24685;SDS011;12804;51.176;4.452;2022-07-10T01:23:22;3.22;;;1.00;;
24685;SDS011;12804;51.176;4.452;2022-07-10T01:25:49;3.25;;;1.13;;
24685;SDS011;12804;51.176;4.452;2022-07-10T01:28:19;4.05;;;1.30;;
24685;SDS011;12804;51.176;4.452;2022-07-10T01:30:46;4.45;;;1.45;;
24685;SDS011;12804;51.176;4.452;2022-07-10T01:33:13;3.88;;;1.05;;
24685;SDS011;12804;51.176;4.452;2022-07-10T01:35:39;3.50;;;1.30;;
24685;SDS011;12804;51.176;4.452;2022-07-10T01:38:05;2.65;;;1.08;;
24685;SDS011;12804;51.176;4.452;2022-07-10T01:40:31;2.90;;;1.10;;
24685;SDS011;12804;51.176;4.452;2022-07-10T01:42:57;3.85;;;1.25;;
24685;SDS011;12804;51.176;4.452;2022-07-10T01:45:23;2.75;;;0.80;;
24685;SDS011;12804;51.176;4.452;2022-07-10T01:47:49;3.30;;;1.10;;
24685;SDS011;12804;51.176;4.452;2022-07-10T01:50:16;3.70;;;1.40;;
24685;SDS011;12804;51.176;4.452;2022-07-10T01:52:41;3.22;;;1.10;;
24685;SDS011;12804;51.176;4.452;2022-07-10T01:55:07;3.17;;;0.98;;
24685;SDS011;12804;51.176;4.452;2022-07-10T01:57:34;5.35;;;1.10;;
24685;SDS011;12804;51.176;4.452;2022-07-10T02:00:00;3.25;;;1.30;;
24685;SDS011;12804;51.176;4.452;2022-07-10T02:02:26;3.00;;;1.00;;
24685;SDS011;12804;51.176;4.452;2022-07-10T02:04:52;1.80;;;1.00;;
24685;SDS011;12804;51.176;4.452;2022-07-10T02:07:18;2.83;;;1.33;;
24685;SDS011;12804;51.176;4.452;2022-07-10T02:09:46;2.85;;;1.20;;
24685;SDS011;12804;51.176;4.452;2022-07-10T02:12:13;2.70;;;0.93;;
24685;SDS011;12804;51.176;4.452;2022-07-10T02:14:40;3.63;;;1.10;;
24685;SDS011;12804;51.176;4.452;2022-07-10T02:17:07;4.85;;;1.30;;
24685;SDS011;12804;51.176;4.452;2022-07-10T02:19:33;4.57;;;1.40;;
24685;SDS011;12804;51.176;4.452;2022-07-10T02:22:00;6.18;;;1.10;;
24685;SDS011;12804;51.176;4.452;2022-07-10T02:24:26;4.30;;;1.10;;
24685;SDS011;12804;51.176;4.452;2022-07-10T02:26:52;2.95;;;1.15;;
24685;SDS011;12804;51.176;4.452;2022-07-10T02:29:20;2.47;;;1.20;;
24685;SDS011;12804;51.176;4.452;2022-07-10T02:31:48;4.68;;;1.30;;
24685;SDS011;12804;51.176;4.452;2022-07-10T02:34:14;3.88;;;1.17;;
24685;SDS011;12804;51.176;4.452;2022-07-10T02:36:39;4.45;;;1.10;;
24685;SDS011;12804;51.176;4.452;2022-07-10T02:39:06;2.85;;;1.17;;
24685;SDS011;12804;51.176;4.452;2022-07-10T02:41:33;4.57;;;1.10;;
24685;SDS011;12804;51.176;4.452;2022-07-10T02:44:01;3.42;;;1.30;;
24685;SDS011;12804;51.176;4.452;2022-07-10T02:46:27;4.43;;;1.40;;
24685;SDS011;12804;51.176;4.452;2022-07-10T02:48:53;3.17;;;1.40;;
24685;SDS011;12804;51.176;4.452;2022-07-10T02:51:19;3.90;;;1.23;;
24685;SDS011;12804;51.176;4.452;2022-07-10T02:53:45;4.68;;;1.20;;
24685;SDS011;12804;51.176;4.452;2022-07-10T02:56:10;8.38;;;1.50;;
24685;SDS011;12804;51.176;4.452;2022-07-10T02:58:37;5.15;;;1.27;;
24685;SDS011;12804;51.176;4.452;2022-07-10T03:01:04;5.25;;;1.10;;
24685;SDS011;12804;51.176;4.452;2022-07-10T03:03:30;4.90;;;1.15;;
24685;SDS011;12804;51.176;4.452;2022-07-10T03:05:56;2.13;;;0.98;;
24685;SDS011;12804;51.176;4.452;2022-07-10T03:08:23;3.25;;;1.17;;
24685;SDS011;12804;51.176;4.452;2022-07-10T03:10:49;2.80;;;1.10;;
24685;SDS011;12804;51.176;4.452;2022-07-10T03:13:15;2.00;;;1.05;;
24685;SDS011;12804;51.176;4.452;2022-07-10T03:15:40;2.95;;;1.17;;
24685;SDS011;12804;51.176;4.452;2022-07-10T03:18:06;2.97;;;1.20;;
24685;SDS011;12804;51.176;4.452;2022-07-10T03:20:32;3.60;;;1.10;;
24685;SDS011;12804;51.176;4.452;2022-07-10T03:22:57;4.70;;;1.30;;
24685;SDS011;12804;51.176;4.452;2022-07-10T03:25:23;4.68;;;1.30;;
24685;SDS011;12804;51.176;4.452;2022-07-10T03:27:49;5.47;;;1.40;;
24685;SDS011;12804;51.176;4.452;2022-07-10T03:30:15;5.72;;;1.30;;
24685;SDS011;12804;51.176;4.452;2022-07-10T03:32:41;4.65;;;1.20;;
24685;SDS011;12804;51.176;4.452;2022-07-10T03:35:06;4.32;;;1.10;;
24685;SDS011;12804;51.176;4.452;2022-07-10T03:37:32;3.03;;;1.20;;
24685;SDS011;12804;51.176;4.452;2022-07-10T03:39:58;3.60;;;1.35;;
24685;SDS011;12804;51.176;4.452;2022-07-10T03:42:24;5.05;;;1.58;;
24685;SDS011;12804;51.176;4.452;2022-07-10T03:44:50;2.85;;;1.10;;
24685;SDS011;12804;51.176;4.452;2022-07-10T03:47:15;4.65;;;1.33;;
24685;SDS011;12804;51.176;4.452;2022-07-10T03:49:41;4.60;;;1.35;;
24685;SDS011;12804;51.176;4.452;2022-07-10T03:52:07;3.25;;;1.30;;
24685;SDS011;12804;51.176;4.452;2022-07-10T03:54:33;4.88;;;1.30;;
24685;SDS011;12804;51.176;4.452;2022-07-10T03:56:59;5.40;;;1.30;;
24685;SDS011;12804;51.176;4.452;2022-07-10T03:59:44;3.00;;;1.20;;
24685;SDS011;12804;51.176;4.452;2022-07-10T04:02:10;4.40;;;1.38;;
24685;SDS011;12804;51.176;4.452;2022-07-10T04:04:36;3.60;;;1.20;;
24685;SDS011;12804;51.176;4.452;2022-07-10T04:07:02;2.75;;;1.05;;
24685;SDS011;12804;51.176;4.452;2022-07-10T04:09:29;3.70;;;1.40;;
24685;SDS011;12804;51.176;4.452;2022-07-10T04:11:55;3.58;;;1.30;;
24685;SDS011;12804;51.176;4.452;2022-07-10T04:14:21;2.88;;;1.13;;
24685;SDS011;12804;51.176;4.452;2022-07-10T04:16:47;3.55;;;1.30;;
24685;SDS011;12804;51.176;4.452;2022-07-10T04:19:12;4.40;;;1.33;;
24685;SDS011;12804;51.176;4.452;2022-07-10T04:21:38;4.40;;;1.30;;
24685;SDS011;12804;51.176;4.452;2022-07-10T04:24:04;4.03;;;1.45;;
24685;SDS011;12804;51.176;4.452;2022-07-10T04:26:30;3.53;;;1.33;;
24685;SDS011;12804;51.176;4.452;2022-07-10T04:28:56;5.32;;;1.50;;
24685;SDS011;12804;51.176;4.452;2022-07-10T04:31:21;2.90;;;1.20;;
24685;SDS011;12804;51.176;4.452;2022-07-10T04:33:47;4.68;;;1.42;;
24685;SDS011;12804;51.176;4.452;2022-07-10T04:36:13;3.35;;;1.30;;
24685;SDS011;12804;51.176;4.452;2022-07-10T04:38:39;3.85;;;1.55;;
24685;SDS011;12804;51.176;4.452;2022-07-10T04:41:05;3.30;;;1.40;;
24685;SDS011;12804;51.176;4.452;2022-07-10T04:43:34;4.28;;;1.60;;
24685;SDS011;12804;51.176;4.452;2022-07-10T04:46:00;3.25;;;1.30;;
24685;SDS011;12804;51.176;4.452;2022-07-10T04:48:26;6.20;;;1.67;;
24685;SDS011;12804;51.176;4.452;2022-07-10T04:50:52;5.55;;;1.58;;
24685;SDS011;12804;51.176;4.452;2022-07-10T04:53:18;5.57;;;1.45;;
24685;SDS011;12804;51.176;4.452;2022-07-10T04:55:44;4.95;;;1.48;;
24685;SDS011;12804;51.176;4.452;2022-07-10T04:58:10;5.65;;;1.48;;
24685;SDS011;12804;51.176;4.452;2022-07-10T05:00:36;3.15;;;1.35;;
24685;SDS011;12804;51.176;4.452;2022-07-10T05:03:02;5.00;;;1.40;;
24685;SDS011;12804;51.176;4.452;2022-07-10T05:05:28;8.23;;;1.92;;
24685;SDS011;12804;51.176;4.452;2022-07-10T05:07:54;6.95;;;1.83;;
24685;SDS011;12804;51.176;4.452;2022-07-10T05:10:20;4.40;;;1.88;;
24685;SDS011;12804;51.176;4.452;2022-07-10T05:12:46;4.10;;;1.60;;
24685;SDS011;12804;51.176;4.452;2022-07-10T05:15:12;4.45;;;1.90;;
24685;SDS011;12804;51.176;4.452;2022-07-10T05:17:38;5.43;;;1.58;;
24685;SDS011;12804;51.176;4.452;2022-07-10T05:20:04;7.43;;;1.60;;
24685;SDS011;12804;51.176;4.452;2022-07-10T05:22:30;3.63;;;1.40;;
24685;SDS011;12804;51.176;4.452;2022-07-10T05:24:56;5.45;;;1.60;;
24685;SDS011;12804;51.176;4.452;2022-07-10T05:27:22;3.92;;;1.67;;
24685;SDS011;12804;51.176;4.452;2022-07-10T05:29:49;2.90;;;1.40;;
24685;SDS011;12804;51.176;4.452;2022-07-10T05:32:15;2.78;;;1.25;;
24685;SDS011;12804;51.176;4.452;2022-07-10T05:34:41;7.25;;;1.23;;
24685;SDS011;12804;51.176;4.452;2022-07-10T05:37:07;2.60;;;1.10;;
24685;SDS011;12804;51.176;4.452;2022-07-10T05:39:33;4.43;;;1.00;;
24685;SDS011;12804;51.176;4.452;2022-07-10T05:41:59;5.05;;;1.13;;
24685;SDS011;12804;51.176;4.452;2022-07-10T05:44:25;4.38;;;1.00;;
24685;SDS011;12804;51.176;4.452;2022-07-10T05:46:51;5.88;;;1.20;;
24685;SDS011;12804;51.176;4.452;2022-07-10T05:49:17;7.07;;;1.08;;
24685;SDS011;12804;51.176;4.452;2022-07-10T05:51:43;4.10;;;1.00;;
24685;SDS011;12804;51.176;4.452;2022-07-10T05:54:09;3.88;;;1.08;;
24685;SDS011;12804;51.176;4.452;2022-07-10T05:56:34;2.17;;;1.02;;
24685;SDS011;12804;51.176;4.452;2022-07-10T05:59:00;3.08;;;0.93;;
24685;SDS011;12804;51.176;4.452;2022-07-10T06:01:26;2.35;;;0.90;;
24685;SDS011;12804;51.176;4.452;2022-07-10T06:03:52;2.85;;;0.82;;
24685;SDS011;12804;51.176;4.452;2022-07-10T06:06:18;3.20;;;0.98;;
24685;SDS011;12804;51.176;4.452;2022-07-10T06:08:44;4.45;;;1.13;;
24685;SDS011;12804;51.176;4.452;2022-07-10T06:11:10;4.50;;;1.30;;
24685;SDS011;12804;51.176;4.452;2022-07-10T06:13:37;3.55;;;1.45;;
24685;SDS011;12804;51.176;4.452;2022-07-10T06:16:03;2.90;;;1.08;;
24685;SDS011;12804;51.176;4.452;2022-07-10T06:18:30;3.67;;;1.10;;
24685;SDS011;12804;51.176;4.452;2022-07-10T06:20:58;3.70;;;1.08;;
24685;SDS011;12804;51.176;4.452;2022-07-10T06:23:24;2.85;;;1.05;;
24685;SDS011;12804;51.176;4.452;2022-07-10T06:25:50;2.38;;;0.60;;
24685;SDS011;12804;51.176;4.452;2022-07-10T06:28:16;3.85;;;0.93;;
24685;SDS011;12804;51.176;4.452;2022-07-10T06:30:42;3.47;;;0.80;;
24685;SDS011;12804;51.176;4.452;2022-07-10T06:33:08;1.90;;;0.70;;
24685;SDS011;12804;51.176;4.452;2022-07-10T06:35:34;5.25;;;1.08;;
24685;SDS011;12804;51.176;4.452;2022-07-10T06:38:00;2.83;;;0.80;;
24685;SDS011;12804;51.176;4.452;2022-07-10T06:40:28;4.15;;;1.05;;
24685;SDS011;12804;51.176;4.452;2022-07-10T06:42:55;1.90;;;0.80;;
24685;SDS011;12804;51.176;4.452;2022-07-10T06:45:21;5.22;;;1.13;;
24685;SDS011;12804;51.176;4.452;2022-07-10T06:47:46;3.28;;;1.10;;
24685;SDS011;12804;51.176;4.452;2022-07-10T06:50:21;3.00;;;1.30;;
24685;SDS011;12804;51.176;4.452;2022-07-10T06:52:49;4.15;;;1.10;;
24685;SDS011;12804;51.176;4.452;2022-07-10T06:55:15;4.22;;;1.30;;
24685;SDS011;12804;51.176;4.452;2022-07-10T06:57:43;7.35;;;1.40;;
24685;SDS011;12804;51.176;4.452;2022-07-10T07:00:08;4.18;;;1.17;;
24685;SDS011;12804;51.176;4.452;2022-07-10T07:02:35;3.28;;;1.05;;
24685;SDS011;12804;51.176;4.452;2022-07-10T07:05:01;4.18;;;1.40;;
24685;SDS011;12804;51.176;4.452;2022-07-10T07:07:27;3.88;;;1.10;;
24685;SDS011;12804;51.176;4.452;2022-07-10T07:09:53;3.75;;;1.17;;
24685;SDS011;12804;51.176;4.452;2022-07-10T07:12:19;3.90;;;1.13;;
24685;SDS011;12804;51.176;4.452;2022-07-10T07:14:45;2.08;;;1.13;;
24685;SDS011;12804;51.176;4.452;2022-07-10T07:17:10;5.00;;;1.13;;
24685;SDS011;12804;51.176;4.452;2022-07-10T07:19:39;5.18;;;1.48;;
24685;SDS011;12804;51.176;4.452;2022-07-10T07:22:23;2.67;;;1.00;;
24685;SDS011;12804;51.176;4.452;2022-07-10T07:25:09;4.13;;;1.20;;
24685;SDS011;12804;51.176;4.452;2022-07-10T07:27:36;4.28;;;1.10;;
24685;SDS011;12804;51.176;4.452;2022-07-10T07:30:07;2.25;;;1.10;;
24685;SDS011;12804;51.176;4.452;2022-07-10T07:32:36;4.68;;;1.10;;
24685;SDS011;12804;51.176;4.452;2022-07-10T07:35:02;4.55;;;1.23;;
24685;SDS011;12804;51.176;4.452;2022-07-10T07:37:38;2.58;;;1.00;;
24685;SDS011;12804;51.176;4.452;2022-07-10T07:40:05;3.10;;;1.00;;
24685;SDS011;12804;51.176;4.452;2022-07-10T07:42:33;3.75;;;0.90;;
24685;SDS011;12804;51.176;4.452;2022-07-10T07:44:59;2.70;;;0.98;;
24685;SDS011;12804;51.176;4.452;2022-07-10T07:47:24;3.03;;;0.90;;
24685;SDS011;12804;51.176;4.452;2022-07-10T07:49:50;4.43;;;1.08;;
24685;SDS011;12804;51.176;4.452;2022-07-10T07:52:16;2.58;;;0.90;;
24685;SDS011;12804;51.176;4.452;2022-07-10T07:54:42;4.03;;;1.10;;
24685;SDS011;12804;51.176;4.452;2022-07-10T07:57:08;4.32;;;1.10;;
24685;SDS011;12804;51.176;4.452;2022-07-10T07:59:33;3.88;;;1.05;;
24685;SDS011;12804;51.176;4.452;2022-07-10T08:02:00;4.53;;;1.20;;
24685;SDS011;12804;51.176;4.452;2022-07-10T08:04:26;2.88;;;1.13;;
24685;SDS011;12804;51.176;4.452;2022-07-10T08:06:51;3.22;;;1.10;;
24685;SDS011;12804;51.176;4.452;2022-07-10T08:09:19;2.75;;;1.20;;
24685;SDS011;12804;51.176;4.452;2022-07-10T08:11:45;4.97;;;0.90;;
24685;SDS011;12804;51.176;4.452;2022-07-10T08:14:11;4.05;;;1.10;;
24685;SDS011;12804;51.176;4.452;2022-07-10T08:16:38;3.08;;;0.93;;
24685;SDS011;12804;51.176;4.452;2022-07-10T08:19:05;5.97;;;1.10;;
24685;SDS011;12804;51.176;4.452;2022-07-10T08:21:31;2.55;;;0.93;;
24685;SDS011;12804;51.176;4.452;2022-07-10T08:23:57;4.15;;;1.20;;
24685;SDS011;12804;51.176;4.452;2022-07-10T08:26:23;4.95;;;1.33;;
24685;SDS011;12804;51.176;4.452;2022-07-10T08:28:49;3.22;;;1.02;;
24685;SDS011;12804;51.176;4.452;2022-07-10T08:31:15;4.30;;;1.25;;
24685;SDS011;12804;51.176;4.452;2022-07-10T08:33:41;3.70;;;1.20;;
24685;SDS011;12804;51.176;4.452;2022-07-10T08:36:07;2.88;;;1.30;;
24685;SDS011;12804;51.176;4.452;2022-07-10T08:38:33;3.55;;;1.05;;
24685;SDS011;12804;51.176;4.452;2022-07-10T08:40:59;2.45;;;0.98;;
24685;SDS011;12804;51.176;4.452;2022-07-10T08:43:28;2.90;;;0.93;;
24685;SDS011;12804;51.176;4.452;2022-07-10T08:45:53;2.40;;;1.00;;
24685;SDS011;12804;51.176;4.452;2022-07-10T08:48:23;4.60;;;1.13;;
24685;SDS011;12804;51.176;4.452;2022-07-10T08:50:52;2.90;;;0.95;;
24685;SDS011;12804;51.176;4.452;2022-07-10T08:53:23;4.30;;;1.10;;
24685;SDS011;12804;51.176;4.452;2022-07-10T08:55:55;2.65;;;0.80;;
24685;SDS011;12804;51.176;4.452;2022-07-10T08:58:21;3.42;;;0.70;;
24685;SDS011;12804;51.176;4.452;2022-07-10T09:00:48;2.78;;;1.05;;
24685;SDS011;12804;51.176;4.452;2022-07-10T09:03:14;3.40;;;1.10;;
24685;SDS011;12804;51.176;4.452;2022-07-10T09:05:40;3.08;;;1.17;;
24685;SDS011;12804;51.176;4.452;2022-07-10T09:08:25;2.35;;;1.00;;
24685;SDS011;12804;51.176;4.452;2022-07-10T09:13:51;2.92;;;1.30;;
24685;SDS011;12804;51.176;4.452;2022-07-10T09:16:36;4.63;;;1.30;;
24685;SDS011;12804;51.176;4.452;2022-07-10T09:21:50;3.35;;;1.23;;
24685;SDS011;12804;51.176;4.452;2022-07-10T09:24:17;4.60;;;1.50;;
24685;SDS011;12804;51.176;4.452;2022-07-10T09:29:22;4.25;;;2.03;;
24685;SDS011;12804;51.176;4.452;2022-07-10T09:34:39;4.47;;;1.75;;
24685;SDS011;12804;51.176;4.452;2022-07-10T09:39:51;3.38;;;1.40;;
24685;SDS011;12804;51.176;4.452;2022-07-10T09:52:59;2.67;;;1.33;;
24685;SDS011;12804;51.176;4.452;2022-07-10T09:55:35;2.10;;;1.10;;
24685;SDS011;12804;51.176;4.452;2022-07-10T09:58:05;2.28;;;1.17;;
24685;SDS011;12804;51.176;4.452;2022-07-10T10:00:37;3.92;;;1.23;;
24685;SDS011;12804;51.176;4.452;2022-07-10T10:03:09;3.28;;;1.25;;
24685;SDS011;12804;51.176;4.452;2022-07-10T10:08:11;3.88;;;1.40;;
24685;SDS011;12804;51.176;4.452;2022-07-10T10:10:50;2.85;;;1.20;;
24685;SDS011;12804;51.176;4.452;2022-07-10T10:13:20;3.80;;;1.40;;
24685;SDS011;12804;51.176;4.452;2022-07-10T10:15:48;3.65;;;1.10;;
24685;SDS011;12804;51.176;4.452;2022-07-10T10:18:16;2.53;;;1.00;;
24685;SDS011;12804;51.176;4.452;2022-07-10T10:20:46;2.65;;;1.20;;
24685;SDS011;12804;51.176;4.452;2022-07-10T10:23:16;4.43;;;1.20;;
24685;SDS011;12804;51.176;4.452;2022-07-10T10:25:45;2.20;;;1.13;;
24685;SDS011;12804;51.176;4.452;2022-07-10T10:28:17;3.53;;;1.23;;
24685;SDS011;12804;51.176;4.452;2022-07-10T10:30:48;3.63;;;1.20;;
24685;SDS011;12804;51.176;4.452;2022-07-10T10:36:01;2.92;;;1.40;;
24685;SDS011;12804;51.176;4.452;2022-07-10T10:41:26;3.33;;;1.27;;
24685;SDS011;12804;51.176;4.452;2022-07-10T10:46:33;4.22;;;1.08;;
24685;SDS011;12804;51.176;4.452;2022-07-10T10:49:15;4.50;;;1.20;;
24685;SDS011;12804;51.176;4.452;2022-07-10T10:54:29;2.67;;;1.23;;
24685;SDS011;12804;51.176;4.452;2022-07-10T10:57:12;2.63;;;1.30;;
24685;SDS011;12804;51.176;4.452;2022-07-10T10:59:49;4.68;;;1.30;;
24685;SDS011;12804;51.176;4.452;2022-07-10T11:02:24;3.22;;;1.10;;
24685;SDS011;12804;51.176;4.452;2022-07-10T11:07:54;2.95;;;1.00;;
24685;SDS011;12804;51.176;4.452;2022-07-10T11:18:17;4.05;;;1.00;;
24685;SDS011;12804;51.176;4.452;2022-07-10T11:31:09;4.57;;;1.00;;
24685;SDS011;12804;51.176;4.452;2022-07-10T11:33:53;2.17;;;0.93;;
24685;SDS011;12804;51.176;4.452;2022-07-10T11:36:21;1.70;;;0.80;;
24685;SDS011;12804;51.176;4.452;2022-07-10T11:38:57;2.25;;;1.00;;
24685;SDS011;12804;51.176;4.452;2022-07-10T11:41:24;5.65;;;1.17;;
24685;SDS011;12804;51.176;4.452;2022-07-10T11:46:18;3.88;;;1.00;;
24685;SDS011;12804;51.176;4.452;2022-07-10T11:48:46;3.55;;;0.80;;
24685;SDS011;12804;51.176;4.452;2022-07-10T11:51:32;3.92;;;1.02;;
24685;SDS011;12804;51.176;4.452;2022-07-10T11:54:02;4.78;;;1.00;;
24685;SDS011;12804;51.176;4.452;2022-07-10T11:56:29;2.95;;;1.15;;
24685;SDS011;12804;51.176;4.452;2022-07-10T11:59:09;3.95;;;1.23;;
24685;SDS011;12804;51.176;4.452;2022-07-10T12:01:43;3.10;;;1.20;;
24685;SDS011;12804;51.176;4.452;2022-07-10T12:04:17;2.70;;;0.80;;
24685;SDS011;12804;51.176;4.452;2022-07-10T12:06:45;2.38;;;0.80;;
24685;SDS011;12804;51.176;4.452;2022-07-10T12:09:13;2.53;;;0.85;;
24685;SDS011;12804;51.176;4.452;2022-07-10T12:11:41;2.08;;;0.75;;
24685;SDS011;12804;51.176;4.452;2022-07-10T12:14:17;2.70;;;0.98;;
24685;SDS011;12804;51.176;4.452;2022-07-10T12:16:46;2.30;;;1.10;;
24685;SDS011;12804;51.176;4.452;2022-07-10T12:19:14;3.50;;;0.90;;
24685;SDS011;12804;51.176;4.452;2022-07-10T12:21:43;3.35;;;1.02;;
24685;SDS011;12804;51.176;4.452;2022-07-10T12:24:10;2.35;;;1.00;;
24685;SDS011;12804;51.176;4.452;2022-07-10T12:26:38;2.58;;;1.20;;
24685;SDS011;12804;51.176;4.452;2022-07-10T12:29:05;2.67;;;0.90;;
24685;SDS011;12804;51.176;4.452;2022-07-10T12:31:31;1.88;;;0.85;;
24685;SDS011;12804;51.176;4.452;2022-07-10T12:33:59;3.08;;;1.10;;
24685;SDS011;12804;51.176;4.452;2022-07-10T12:36:46;3.17;;;0.90;;
24685;SDS011;12804;51.176;4.452;2022-07-10T12:39:19;3.40;;;1.40;;
24685;SDS011;12804;51.176;4.452;2022-07-10T12:41:57;3.03;;;0.90;;
24685;SDS011;12804;51.176;4.452;2022-07-10T12:44:30;3.40;;;1.05;;
24685;SDS011;12804;51.176;4.452;2022-07-10T12:47:03;1.05;;;0.90;;
24685;SDS011;12804;51.176;4.452;2022-07-10T12:49:50;2.90;;;1.27;;
24685;SDS011;12804;51.176;4.452;2022-07-10T12:52:33;3.70;;;1.20;;
24685;SDS011;12804;51.176;4.452;2022-07-10T12:55:10;2.03;;;0.88;;
24685;SDS011;12804;51.176;4.452;2022-07-10T12:57:57;4.00;;;1.20;;
24685;SDS011;12804;51.176;4.452;2022-07-10T13:02:59;3.10;;;1.00;;
24685;SDS011;12804;51.176;4.452;2022-07-10T13:05:31;2.50;;;0.80;;
24685;SDS011;12804;51.176;4.452;2022-07-10T13:10:35;3.33;;;0.90;;
24685;SDS011;12804;51.176;4.452;2022-07-10T13:13:02;2.70;;;0.90;;
24685;SDS011;12804;51.176;4.452;2022-07-10T13:15:31;2.00;;;0.98;;
24685;SDS011;12804;51.176;4.452;2022-07-10T13:17:59;2.00;;;1.20;;
24685;SDS011;12804;51.176;4.452;2022-07-10T13:20:25;3.22;;;1.10;;
24685;SDS011;12804;51.176;4.452;2022-07-10T13:22:51;4.25;;;1.08;;
24685;SDS011;12804;51.176;4.452;2022-07-10T13:25:16;2.63;;;0.82;;
24685;SDS011;12804;51.176;4.452;2022-07-10T13:27:42;2.60;;;0.90;;
24685;SDS011;12804;51.176;4.452;2022-07-10T13:30:09;1.83;;;0.80;;
24685;SDS011;12804;51.176;4.452;2022-07-10T13:32:35;2.30;;;0.88;;
24685;SDS011;12804;51.176;4.452;2022-07-10T13:35:01;3.95;;;1.00;;
24685;SDS011;12804;51.176;4.452;2022-07-10T13:37:27;2.40;;;1.00;;
24685;SDS011;12804;51.176;4.452;2022-07-10T13:39:52;2.88;;;0.90;;
24685;SDS011;12804;51.176;4.452;2022-07-10T13:42:19;1.77;;;0.90;;
24685;SDS011;12804;51.176;4.452;2022-07-10T13:44:45;3.00;;;0.90;;
24685;SDS011;12804;51.176;4.452;2022-07-10T13:47:11;4.03;;;0.88;;
24685;SDS011;12804;51.176;4.452;2022-07-10T13:49:37;1.98;;;0.70;;
24685;SDS011;12804;51.176;4.452;2022-07-10T13:52:03;2.28;;;0.70;;
24685;SDS011;12804;51.176;4.452;2022-07-10T13:54:29;2.95;;;0.70;;
24685;SDS011;12804;51.176;4.452;2022-07-10T13:56:55;3.38;;;0.90;;
24685;SDS011;12804;51.176;4.452;2022-07-10T13:59:20;2.97;;;0.90;;
24685;SDS011;12804;51.176;4.452;2022-07-10T14:01:46;1.80;;;0.80;;
24685;SDS011;12804;51.176;4.452;2022-07-10T14:04:12;2.33;;;0.82;;
24685;SDS011;12804;51.176;4.452;2022-07-10T14:06:38;2.05;;;0.90;;
24685;SDS011;12804;51.176;4.452;2022-07-10T14:09:03;2.45;;;0.98;;
24685;SDS011;12804;51.176;4.452;2022-07-10T14:11:29;3.05;;;0.90;;
24685;SDS011;12804;51.176;4.452;2022-07-10T14:13:55;3.47;;;0.90;;
24685;SDS011;12804;51.176;4.452;2022-07-10T14:16:21;4.07;;;1.00;;
24685;SDS011;12804;51.176;4.452;2022-07-10T14:18:47;1.75;;;0.90;;
24685;SDS011;12804;51.176;4.452;2022-07-10T14:21:12;1.65;;;0.90;;
24685;SDS011;12804;51.176;4.452;2022-07-10T14:23:39;1.80;;;1.00;;
24685;SDS011;12804;51.176;4.452;2022-07-10T14:26:06;2.55;;;1.00;;
24685;SDS011;12804;51.176;4.452;2022-07-10T14:28:32;2.92;;;0.80;;
24685;SDS011;12804;51.176;4.452;2022-07-10T14:31:00;2.90;;;1.00;;
24685;SDS011;12804;51.176;4.452;2022-07-10T14:33:33;2.63;;;0.95;;
24685;SDS011;12804;51.176;4.452;2022-07-10T14:36:00;1.98;;;0.77;;
24685;SDS011;12804;51.176;4.452;2022-07-10T14:38:26;3.15;;;0.82;;
24685;SDS011;12804;51.176;4.452;2022-07-10T14:40:52;3.15;;;0.90;;
24685;SDS011;12804;51.176;4.452;2022-07-10T14:43:20;3.17;;;0.90;;
24685;SDS011;12804;51.176;4.452;2022-07-10T14:45:46;2.08;;;0.98;;
24685;SDS011;12804;51.176;4.452;2022-07-10T14:48:13;1.92;;;0.80;;
24685;SDS011;12804;51.176;4.452;2022-07-10T14:50:39;1.58;;;0.88;;
24685;SDS011;12804;51.176;4.452;2022-07-10T14:53:05;4.32;;;1.00;;
24685;SDS011;12804;51.176;4.452;2022-07-10T14:55:32;1.95;;;0.80;;
24685;SDS011;12804;51.176;4.452;2022-07-10T14:57:58;2.65;;;0.80;;
24685;SDS011;12804;51.176;4.452;2022-07-10T15:00:24;2.90;;;0.70;;
24685;SDS011;12804;51.176;4.452;2022-07-10T15:02:49;1.65;;;0.70;;
24685;SDS011;12804;51.176;4.452;2022-07-10T15:05:15;2.60;;;0.90;;
24685;SDS011;12804;51.176;4.452;2022-07-10T15:07:41;2.20;;;0.75;;
24685;SDS011;12804;51.176;4.452;2022-07-10T15:10:07;2.05;;;0.82;;
24685;SDS011;12804;51.176;4.452;2022-07-10T15:12:34;1.52;;;0.60;;
24685;SDS011;12804;51.176;4.452;2022-07-10T15:15:04;3.22;;;0.70;;
24685;SDS011;12804;51.176;4.452;2022-07-10T15:17:34;2.05;;;0.73;;
24685;SDS011;12804;51.176;4.452;2022-07-10T15:20:01;3.42;;;0.80;;
24685;SDS011;12804;51.176;4.452;2022-07-10T15:22:27;1.45;;;0.50;;
24685;SDS011;12804;51.176;4.452;2022-07-10T15:24:53;2.22;;;0.70;;
24685;SDS011;12804;51.176;4.452;2022-07-10T15:27:19;2.17;;;0.70;;
24685;SDS011;12804;51.176;4.452;2022-07-10T15:29:44;1.58;;;0.65;;
24685;SDS011;12804;51.176;4.452;2022-07-10T15:32:10;2.67;;;0.70;;
24685;SDS011;12804;51.176;4.452;2022-07-10T15:34:37;1.83;;;0.60;;
24685;SDS011;12804;51.176;4.452;2022-07-10T15:37:03;2.00;;;0.70;;
24685;SDS011;12804;51.176;4.452;2022-07-10T15:39:29;1.40;;;0.70;;
24685;SDS011;12804;51.176;4.452;2022-07-10T15:42:09;2.30;;;0.77;;
24685;SDS011;12804;51.176;4.452;2022-07-10T15:44:36;0.98;;;0.50;;
24685;SDS011;12804;51.176;4.452;2022-07-10T15:47:02;2.60;;;0.80;;
24685;SDS011;12804;51.176;4.452;2022-07-10T15:49:28;2.90;;;0.60;;
24685;SDS011;12804;51.176;4.452;2022-07-10T15:51:54;1.27;;;0.80;;
24685;SDS011;12804;51.176;4.452;2022-07-10T15:54:20;1.42;;;0.63;;
24685;SDS011;12804;51.176;4.452;2022-07-10T15:56:47;1.85;;;0.70;;